sensor_id;sensor_type;location;lat;lon;timestamp;P1;durP1;ratioP1;P2;durP2;ratioP2
16015;SDS011;8112;53.592;10.184;2023-02-28T00:04:21;9.33;;;4.37;;
16015;SDS011;8112;53.592;10.184;2023-02-28T00:09:22;6.57;;;3.90;;
16015;SDS011;8112;53.592;10.184;2023-02-28T00:14:24;8.37;;;3.73;;
16015;SDS011;8112;53.592;10.184;2023-02-28T00:19:27;6.43;;;3.70;;
16015;SDS011;8112;53.592;10.184;2023-02-28T00:24:29;5.27;;;4.30;;
16015;SDS011;8112;53.592;10.184;2023-02-28T00:29:30;4.97;;;3.73;;
16015;SDS011;8112;53.592;10.184;2023-02-28T00:34:34;7.57;;;4.40;;
16015;SDS011;8112;53.592;10.184;2023-02-28T00:39:38;5.20;;;4.00;;
16015;SDS011;8112;53.592;10.184;2023-02-28T00:44:40;6.20;;;4.03;;
16015;SDS011;8112;53.592;10.184;2023-02-28T00:49:43;4.40;;;3.43;;
16015;SDS011;8112;53.592;10.184;2023-02-28T00:54:44;4.23;;;3.60;;
16015;SDS011;8112;53.592;10.184;2023-02-28T00:59:48;9.13;;;4.03;;
16015;SDS011;8112;53.592;10.184;2023-02-28T01:04:51;5.33;;;4.23;;
16015;SDS011;8112;53.592;10.184;2023-02-28T01:09:53;7.57;;;3.43;;
16015;SDS011;8112;53.592;10.184;2023-02-28T01:14:55;5.33;;;3.10;;
16015;SDS011;8112;53.592;10.184;2023-02-28T01:19:58;4.80;;;3.10;;
16015;SDS011;8112;53.592;10.184;2023-02-28T01:25:00;6.07;;;3.90;;
16015;SDS011;8112;53.592;10.184;2023-02-28T01:30:01;4.43;;;3.17;;
16015;SDS011;8112;53.592;10.184;2023-02-28T01:35:05;4.83;;;3.23;;
16015;SDS011;8112;53.592;10.184;2023-02-28T01:40:08;5.93;;;2.90;;
16015;SDS011;8112;53.592;10.184;2023-02-28T01:45:16;3.40;;;2.97;;
16015;SDS011;8112;53.592;10.184;2023-02-28T01:50:24;6.13;;;3.30;;
16015;SDS011;8112;53.592;10.184;2023-02-28T01:55:29;5.20;;;2.90;;
16015;SDS011;8112;53.592;10.184;2023-02-28T02:00:32;4.23;;;3.20;;
16015;SDS011;8112;53.592;10.184;2023-02-28T02:05:36;5.37;;;3.57;;
16015;SDS011;8112;53.592;10.184;2023-02-28T02:10:41;5.93;;;4.13;;
16015;SDS011;8112;53.592;10.184;2023-02-28T02:15:47;5.73;;;3.50;;
16015;SDS011;8112;53.592;10.184;2023-02-28T02:21:12;3.97;;;3.03;;
16015;SDS011;8112;53.592;10.184;2023-02-28T02:37:31;5.17;;;3.20;;
16015;SDS011;8112;53.592;10.184;2023-02-28T02:42:41;5.10;;;3.13;;
16015;SDS011;8112;53.592;10.184;2023-02-28T02:47:50;5.33;;;3.00;;
16015;SDS011;8112;53.592;10.184;2023-02-28T02:52:55;7.60;;;3.93;;
16015;SDS011;8112;53.592;10.184;2023-02-28T02:58:02;5.30;;;2.40;;
16015;SDS011;8112;53.592;10.184;2023-02-28T03:03:09;4.43;;;3.23;;
16015;SDS011;8112;53.592;10.184;2023-02-28T03:08:13;4.93;;;2.53;;
16015;SDS011;8112;53.592;10.184;2023-02-28T03:13:20;6.27;;;2.87;;
16015;SDS011;8112;53.592;10.184;2023-02-28T03:18:40;4.80;;;2.57;;
16015;SDS011;8112;53.592;10.184;2023-02-28T03:23:52;3.17;;;2.53;;
16015;SDS011;8112;53.592;10.184;2023-02-28T03:29:01;3.33;;;2.93;;
16015;SDS011;8112;53.592;10.184;2023-02-28T03:34:06;2.60;;;2.10;;
16015;SDS011;8112;53.592;10.184;2023-02-28T03:39:13;7.07;;;2.77;;
16015;SDS011;8112;53.592;10.184;2023-02-28T03:44:19;4.63;;;2.90;;
16015;SDS011;8112;53.592;10.184;2023-02-28T03:49:27;5.00;;;2.70;;
16015;SDS011;8112;53.592;10.184;2023-02-28T03:54:35;4.23;;;2.60;;
16015;SDS011;8112;53.592;10.184;2023-02-28T03:59:42;5.10;;;3.07;;
16015;SDS011;8112;53.592;10.184;2023-02-28T04:04:47;2.80;;;2.53;;
16015;SDS011;8112;53.592;10.184;2023-02-28T04:09:50;4.80;;;2.67;;
16015;SDS011;8112;53.592;10.184;2023-02-28T04:14:53;5.47;;;3.13;;
16015;SDS011;8112;53.592;10.184;2023-02-28T04:19:54;4.23;;;2.50;;
16015;SDS011;8112;53.592;10.184;2023-02-28T04:24:58;3.70;;;2.60;;
16015;SDS011;8112;53.592;10.184;2023-02-28T04:30:00;5.47;;;3.07;;
16015;SDS011;8112;53.592;10.184;2023-02-28T04:35:02;6.93;;;3.60;;
16015;SDS011;8112;53.592;10.184;2023-02-28T04:40:06;5.13;;;3.67;;
16015;SDS011;8112;53.592;10.184;2023-02-28T04:45:09;6.93;;;3.07;;
16015;SDS011;8112;53.592;10.184;2023-02-28T04:50:11;3.87;;;2.87;;
16015;SDS011;8112;53.592;10.184;2023-02-28T04:55:14;5.27;;;2.87;;
16015;SDS011;8112;53.592;10.184;2023-02-28T05:00:16;5.00;;;2.37;;
16015;SDS011;8112;53.592;10.184;2023-02-28T05:05:18;5.80;;;2.90;;
16015;SDS011;8112;53.592;10.184;2023-02-28T05:10:21;4.87;;;3.00;;
16015;SDS011;8112;53.592;10.184;2023-02-28T05:15:24;5.83;;;3.00;;
16015;SDS011;8112;53.592;10.184;2023-02-28T05:20:26;5.03;;;3.53;;
16015;SDS011;8112;53.592;10.184;2023-02-28T05:25:29;5.20;;;3.87;;
16015;SDS011;8112;53.592;10.184;2023-02-28T05:30:30;6.80;;;3.77;;
16015;SDS011;8112;53.592;10.184;2023-02-28T05:35:32;6.87;;;3.80;;
16015;SDS011;8112;53.592;10.184;2023-02-28T05:40:35;5.47;;;3.97;;
16015;SDS011;8112;53.592;10.184;2023-02-28T05:45:39;4.93;;;3.53;;
16015;SDS011;8112;53.592;10.184;2023-02-28T05:50:41;4.90;;;3.10;;
16015;SDS011;8112;53.592;10.184;2023-02-28T05:55:46;6.77;;;3.13;;
16015;SDS011;8112;53.592;10.184;2023-02-28T06:00:48;4.07;;;3.13;;
16015;SDS011;8112;53.592;10.184;2023-02-28T06:05:50;5.80;;;3.67;;
16015;SDS011;8112;53.592;10.184;2023-02-28T06:10:53;5.57;;;3.17;;
16015;SDS011;8112;53.592;10.184;2023-02-28T06:15:54;5.57;;;3.73;;
16015;SDS011;8112;53.592;10.184;2023-02-28T06:20:56;8.53;;;3.60;;
16015;SDS011;8112;53.592;10.184;2023-02-28T06:25:59;5.13;;;3.50;;
16015;SDS011;8112;53.592;10.184;2023-02-28T06:31:05;7.33;;;4.00;;
16015;SDS011;8112;53.592;10.184;2023-02-28T06:36:08;4.87;;;3.67;;
16015;SDS011;8112;53.592;10.184;2023-02-28T06:41:12;6.57;;;3.90;;
16015;SDS011;8112;53.592;10.184;2023-02-28T06:46:14;6.03;;;3.63;;
16015;SDS011;8112;53.592;10.184;2023-02-28T06:51:17;6.57;;;3.97;;
16015;SDS011;8112;53.592;10.184;2023-02-28T06:56:21;5.90;;;4.37;;
16015;SDS011;8112;53.592;10.184;2023-02-28T07:01:23;7.93;;;4.37;;
16015;SDS011;8112;53.592;10.184;2023-02-28T07:06:25;5.13;;;4.30;;
16015;SDS011;8112;53.592;10.184;2023-02-28T07:11:29;6.83;;;4.70;;
16015;SDS011;8112;53.592;10.184;2023-02-28T07:16:30;6.17;;;4.67;;
16015;SDS011;8112;53.592;10.184;2023-02-28T07:21:32;6.53;;;4.80;;
16015;SDS011;8112;53.592;10.184;2023-02-28T07:26:36;7.17;;;3.87;;
16015;SDS011;8112;53.592;10.184;2023-02-28T07:31:37;5.23;;;4.20;;
16015;SDS011;8112;53.592;10.184;2023-02-28T07:36:39;5.70;;;4.37;;
16015;SDS011;8112;53.592;10.184;2023-02-28T07:41:42;6.67;;;5.73;;
16015;SDS011;8112;53.592;10.184;2023-02-28T07:46:44;6.63;;;4.83;;
16015;SDS011;8112;53.592;10.184;2023-02-28T07:51:45;6.20;;;4.33;;
16015;SDS011;8112;53.592;10.184;2023-02-28T07:56:48;7.20;;;4.77;;
16015;SDS011;8112;53.592;10.184;2023-02-28T08:01:50;6.67;;;4.33;;
16015;SDS011;8112;53.592;10.184;2023-02-28T08:06:52;6.10;;;5.17;;
16015;SDS011;8112;53.592;10.184;2023-02-28T08:11:55;6.47;;;4.43;;
16015;SDS011;8112;53.592;10.184;2023-02-28T08:16:57;7.70;;;4.50;;
16015;SDS011;8112;53.592;10.184;2023-02-28T08:21:58;5.13;;;4.60;;
16015;SDS011;8112;53.592;10.184;2023-02-28T08:27:01;6.67;;;4.73;;
16015;SDS011;8112;53.592;10.184;2023-02-28T08:32:03;7.63;;;5.20;;
16015;SDS011;8112;53.592;10.184;2023-02-28T08:37:05;7.73;;;4.43;;
16015;SDS011;8112;53.592;10.184;2023-02-28T08:42:09;5.53;;;4.03;;
16015;SDS011;8112;53.592;10.184;2023-02-28T08:47:10;5.37;;;4.30;;
16015;SDS011;8112;53.592;10.184;2023-02-28T08:52:12;5.90;;;4.47;;
16015;SDS011;8112;53.592;10.184;2023-02-28T08:57:15;5.40;;;4.30;;
16015;SDS011;8112;53.592;10.184;2023-02-28T09:02:17;4.43;;;3.87;;
16015;SDS011;8112;53.592;10.184;2023-02-28T09:07:19;5.13;;;4.23;;
16015;SDS011;8112;53.592;10.184;2023-02-28T09:12:22;5.27;;;3.97;;
16015;SDS011;8112;53.592;10.184;2023-02-28T09:17:24;6.73;;;4.23;;
16015;SDS011;8112;53.592;10.184;2023-02-28T09:22:26;4.40;;;3.83;;
16015;SDS011;8112;53.592;10.184;2023-02-28T09:27:29;4.53;;;4.03;;
16015;SDS011;8112;53.592;10.184;2023-02-28T09:32:31;6.23;;;3.73;;
16015;SDS011;8112;53.592;10.184;2023-02-28T09:37:32;6.80;;;3.60;;
16015;SDS011;8112;53.592;10.184;2023-02-28T09:42:35;5.80;;;3.83;;
16015;SDS011;8112;53.592;10.184;2023-02-28T09:47:38;4.17;;;3.13;;
16015;SDS011;8112;53.592;10.184;2023-02-28T09:52:45;3.67;;;2.80;;
16015;SDS011;8112;53.592;10.184;2023-02-28T09:57:50;3.60;;;2.63;;
16015;SDS011;8112;53.592;10.184;2023-02-28T10:08:27;4.27;;;2.80;;
16015;SDS011;8112;53.592;10.184;2023-02-28T10:13:35;2.60;;;2.33;;
16015;SDS011;8112;53.592;10.184;2023-02-28T10:18:46;2.50;;;2.30;;
16015;SDS011;8112;53.592;10.184;2023-02-28T10:23:52;3.40;;;2.50;;
16015;SDS011;8112;53.592;10.184;2023-02-28T10:29:01;3.43;;;2.63;;
16015;SDS011;8112;53.592;10.184;2023-02-28T10:34:04;3.93;;;2.40;;
16015;SDS011;8112;53.592;10.184;2023-02-28T10:44:37;4.67;;;2.57;;
16015;SDS011;8112;53.592;10.184;2023-02-28T10:49:39;2.53;;;2.30;;
16015;SDS011;8112;53.592;10.184;2023-02-28T10:54:48;3.03;;;2.40;;
16015;SDS011;8112;53.592;10.184;2023-02-28T10:59:51;2.63;;;2.33;;
16015;SDS011;8112;53.592;10.184;2023-02-28T11:04:55;3.37;;;2.07;;
16015;SDS011;8112;53.592;10.184;2023-02-28T11:09:57;3.33;;;2.13;;
16015;SDS011;8112;53.592;10.184;2023-02-28T11:15:01;2.47;;;2.10;;
16015;SDS011;8112;53.592;10.184;2023-02-28T11:20:06;3.63;;;2.33;;
16015;SDS011;8112;53.592;10.184;2023-02-28T11:25:20;2.30;;;2.00;;
16015;SDS011;8112;53.592;10.184;2023-02-28T11:30:27;2.07;;;1.50;;
16015;SDS011;8112;53.592;10.184;2023-02-28T11:35:38;4.27;;;1.80;;
16015;SDS011;8112;53.592;10.184;2023-02-28T11:40:42;3.13;;;1.90;;
16015;SDS011;8112;53.592;10.184;2023-02-28T11:45:54;1.97;;;1.50;;
16015;SDS011;8112;53.592;10.184;2023-02-28T11:51:06;2.93;;;1.33;;
16015;SDS011;8112;53.592;10.184;2023-02-28T11:56:18;2.13;;;1.60;;
16015;SDS011;8112;53.592;10.184;2023-02-28T12:01:40;2.03;;;1.47;;
16015;SDS011;8112;53.592;10.184;2023-02-28T12:06:57;2.10;;;1.67;;
16015;SDS011;8112;53.592;10.184;2023-02-28T12:12:10;2.83;;;1.63;;
16015;SDS011;8112;53.592;10.184;2023-02-28T12:17:32;1.77;;;1.50;;
16015;SDS011;8112;53.592;10.184;2023-02-28T12:22:48;2.63;;;1.70;;
16015;SDS011;8112;53.592;10.184;2023-02-28T12:27:57;2.10;;;1.50;;
16015;SDS011;8112;53.592;10.184;2023-02-28T12:33:02;3.00;;;1.60;;
16015;SDS011;8112;53.592;10.184;2023-02-28T12:38:09;1.40;;;1.30;;
16015;SDS011;8112;53.592;10.184;2023-02-28T12:43:14;3.77;;;1.70;;
16015;SDS011;8112;53.592;10.184;2023-02-28T12:48:21;2.30;;;1.33;;
16015;SDS011;8112;53.592;10.184;2023-02-28T12:53:30;1.67;;;1.20;;
16015;SDS011;8112;53.592;10.184;2023-02-28T12:58:38;1.43;;;1.13;;
16015;SDS011;8112;53.592;10.184;2023-02-28T13:03:46;3.03;;;1.80;;
16015;SDS011;8112;53.592;10.184;2023-02-28T13:09:11;2.53;;;1.73;;
16015;SDS011;8112;53.592;10.184;2023-02-28T13:14:20;2.27;;;1.30;;
16015;SDS011;8112;53.592;10.184;2023-02-28T13:19:27;1.63;;;1.43;;
16015;SDS011;8112;53.592;10.184;2023-02-28T13:24:45;1.77;;;1.30;;
16015;SDS011;8112;53.592;10.184;2023-02-28T13:29:47;1.97;;;1.50;;
16015;SDS011;8112;53.592;10.184;2023-02-28T13:40:37;2.17;;;1.60;;
16015;SDS011;8112;53.592;10.184;2023-02-28T13:45:39;2.47;;;1.30;;
16015;SDS011;8112;53.592;10.184;2023-02-28T13:56:43;3.47;;;1.80;;
16015;SDS011;8112;53.592;10.184;2023-02-28T14:01:57;3.23;;;1.60;;
16015;SDS011;8112;53.592;10.184;2023-02-28T14:07:05;2.13;;;1.70;;
16015;SDS011;8112;53.592;10.184;2023-02-28T14:17:51;1.40;;;1.20;;
16015;SDS011;8112;53.592;10.184;2023-02-28T14:22:55;2.50;;;1.80;;
16015;SDS011;8112;53.592;10.184;2023-02-28T14:28:06;2.87;;;1.70;;
16015;SDS011;8112;53.592;10.184;2023-02-28T14:33:21;3.27;;;1.60;;
16015;SDS011;8112;53.592;10.184;2023-02-28T14:38:27;2.27;;;1.60;;
16015;SDS011;8112;53.592;10.184;2023-02-28T14:43:32;2.33;;;1.77;;
16015;SDS011;8112;53.592;10.184;2023-02-28T14:48:35;5.30;;;1.97;;
16015;SDS011;8112;53.592;10.184;2023-02-28T14:53:38;3.53;;;1.43;;
16015;SDS011;8112;53.592;10.184;2023-02-28T14:58:40;3.83;;;1.80;;
16015;SDS011;8112;53.592;10.184;2023-02-28T15:03:43;2.30;;;1.60;;
16015;SDS011;8112;53.592;10.184;2023-02-28T15:08:45;4.07;;;1.50;;
16015;SDS011;8112;53.592;10.184;2023-02-28T15:13:47;2.93;;;2.00;;
16015;SDS011;8112;53.592;10.184;2023-02-28T15:18:54;3.80;;;1.83;;
16015;SDS011;8112;53.592;10.184;2023-02-28T15:23:58;3.03;;;2.17;;
16015;SDS011;8112;53.592;10.184;2023-02-28T15:29:06;4.53;;;2.53;;
16015;SDS011;8112;53.592;10.184;2023-02-28T15:34:16;3.13;;;2.43;;
16015;SDS011;8112;53.592;10.184;2023-02-28T15:39:22;2.63;;;2.20;;
16015;SDS011;8112;53.592;10.184;2023-02-28T15:44:26;3.17;;;1.80;;
16015;SDS011;8112;53.592;10.184;2023-02-28T15:49:34;3.00;;;1.93;;
16015;SDS011;8112;53.592;10.184;2023-02-28T15:54:41;2.07;;;1.90;;
16015;SDS011;8112;53.592;10.184;2023-02-28T15:59:48;2.67;;;2.03;;
16015;SDS011;8112;53.592;10.184;2023-02-28T16:04:58;2.27;;;2.00;;
16015;SDS011;8112;53.592;10.184;2023-02-28T16:10:19;2.57;;;2.00;;
16015;SDS011;8112;53.592;10.184;2023-02-28T16:15:27;3.27;;;2.40;;
16015;SDS011;8112;53.592;10.184;2023-02-28T16:20:31;2.23;;;2.03;;
16015;SDS011;8112;53.592;10.184;2023-02-28T16:25:34;2.93;;;2.10;;
16015;SDS011;8112;53.592;10.184;2023-02-28T16:30:37;2.93;;;2.07;;
16015;SDS011;8112;53.592;10.184;2023-02-28T16:35:40;4.03;;;2.27;;
16015;SDS011;8112;53.592;10.184;2023-02-28T16:40:41;5.67;;;2.30;;
16015;SDS011;8112;53.592;10.184;2023-02-28T16:45:43;2.90;;;2.60;;
16015;SDS011;8112;53.592;10.184;2023-02-28T16:50:46;5.60;;;4.03;;
16015;SDS011;8112;53.592;10.184;2023-02-28T16:55:48;4.47;;;4.07;;
16015;SDS011;8112;53.592;10.184;2023-02-28T17:00:50;4.30;;;3.50;;
16015;SDS011;8112;53.592;10.184;2023-02-28T17:05:54;4.70;;;3.87;;
16015;SDS011;8112;53.592;10.184;2023-02-28T17:10:56;4.77;;;3.53;;
16015;SDS011;8112;53.592;10.184;2023-02-28T17:15:58;5.27;;;3.90;;
16015;SDS011;8112;53.592;10.184;2023-02-28T17:21:01;7.70;;;4.17;;
16015;SDS011;8112;53.592;10.184;2023-02-28T17:26:03;8.77;;;4.30;;
16015;SDS011;8112;53.592;10.184;2023-02-28T17:31:07;11.60;;;7.67;;
16015;SDS011;8112;53.592;10.184;2023-02-28T17:36:11;9.97;;;7.53;;
16015;SDS011;8112;53.592;10.184;2023-02-28T17:41:15;9.37;;;6.70;;
16015;SDS011;8112;53.592;10.184;2023-02-28T17:46:18;11.13;;;6.87;;
16015;SDS011;8112;53.592;10.184;2023-02-28T17:51:23;7.33;;;5.80;;
16015;SDS011;8112;53.592;10.184;2023-02-28T17:56:25;6.90;;;5.17;;
16015;SDS011;8112;53.592;10.184;2023-02-28T18:01:27;5.20;;;4.10;;
16015;SDS011;8112;53.592;10.184;2023-02-28T18:06:33;6.17;;;4.33;;
16015;SDS011;8112;53.592;10.184;2023-02-28T18:11:47;5.63;;;4.13;;
16015;SDS011;8112;53.592;10.184;2023-02-28T18:16:50;4.43;;;3.63;;
16015;SDS011;8112;53.592;10.184;2023-02-28T18:21:53;7.50;;;4.50;;
16015;SDS011;8112;53.592;10.184;2023-02-28T18:26:55;6.37;;;5.13;;
16015;SDS011;8112;53.592;10.184;2023-02-28T18:31:57;6.77;;;4.87;;
16015;SDS011;8112;53.592;10.184;2023-02-28T18:37:02;9.60;;;5.77;;
16015;SDS011;8112;53.592;10.184;2023-02-28T18:42:04;8.07;;;5.13;;
16015;SDS011;8112;53.592;10.184;2023-02-28T18:47:06;9.17;;;5.57;;
16015;SDS011;8112;53.592;10.184;2023-02-28T18:52:09;15.63;;;7.17;;
16015;SDS011;8112;53.592;10.184;2023-02-28T18:57:11;11.47;;;7.37;;
16015;SDS011;8112;53.592;10.184;2023-02-28T19:02:12;9.70;;;7.00;;
16015;SDS011;8112;53.592;10.184;2023-02-28T19:07:15;11.30;;;6.50;;
16015;SDS011;8112;53.592;10.184;2023-02-28T19:12:17;13.10;;;6.63;;
16015;SDS011;8112;53.592;10.184;2023-02-28T19:17:19;8.40;;;5.87;;
16015;SDS011;8112;53.592;10.184;2023-02-28T19:22:22;8.40;;;5.70;;
16015;SDS011;8112;53.592;10.184;2023-02-28T19:27:25;7.53;;;5.10;;
16015;SDS011;8112;53.592;10.184;2023-02-28T19:32:26;7.53;;;5.90;;
16015;SDS011;8112;53.592;10.184;2023-02-28T19:37:29;10.60;;;6.57;;
16015;SDS011;8112;53.592;10.184;2023-02-28T19:42:31;10.53;;;5.90;;
16015;SDS011;8112;53.592;10.184;2023-02-28T19:47:34;9.37;;;5.43;;
16015;SDS011;8112;53.592;10.184;2023-02-28T19:52:38;7.40;;;4.50;;
16015;SDS011;8112;53.592;10.184;2023-02-28T19:57:40;6.30;;;4.37;;
16015;SDS011;8112;53.592;10.184;2023-02-28T20:02:42;5.50;;;3.80;;
16015;SDS011;8112;53.592;10.184;2023-02-28T20:07:45;5.20;;;3.87;;
16015;SDS011;8112;53.592;10.184;2023-02-28T20:12:47;7.27;;;4.20;;
16015;SDS011;8112;53.592;10.184;2023-02-28T20:17:49;9.00;;;4.00;;
16015;SDS011;8112;53.592;10.184;2023-02-28T20:22:52;4.90;;;3.77;;
16015;SDS011;8112;53.592;10.184;2023-02-28T20:27:53;5.47;;;3.90;;
16015;SDS011;8112;53.592;10.184;2023-02-28T20:32:55;5.97;;;3.70;;
16015;SDS011;8112;53.592;10.184;2023-02-28T20:37:58;6.73;;;4.37;;
16015;SDS011;8112;53.592;10.184;2023-02-28T20:43:00;5.50;;;4.20;;
16015;SDS011;8112;53.592;10.184;2023-02-28T20:48:01;6.53;;;4.40;;
16015;SDS011;8112;53.592;10.184;2023-02-28T20:53:05;7.43;;;4.80;;
16015;SDS011;8112;53.592;10.184;2023-02-28T20:58:06;7.70;;;5.17;;
16015;SDS011;8112;53.592;10.184;2023-02-28T21:03:08;6.23;;;4.30;;
16015;SDS011;8112;53.592;10.184;2023-02-28T21:08:11;5.20;;;4.30;;
16015;SDS011;8112;53.592;10.184;2023-02-28T21:13:14;7.00;;;4.50;;
16015;SDS011;8112;53.592;10.184;2023-02-28T21:18:15;7.17;;;4.70;;
16015;SDS011;8112;53.592;10.184;2023-02-28T21:23:18;6.53;;;4.57;;
16015;SDS011;8112;53.592;10.184;2023-02-28T21:28:20;5.83;;;4.87;;
16015;SDS011;8112;53.592;10.184;2023-02-28T21:33:22;6.87;;;4.60;;
16015;SDS011;8112;53.592;10.184;2023-02-28T21:38:25;7.40;;;5.33;;
16015;SDS011;8112;53.592;10.184;2023-02-28T21:43:26;12.60;;;5.00;;
16015;SDS011;8112;53.592;10.184;2023-02-28T21:48:28;7.07;;;5.20;;
16015;SDS011;8112;53.592;10.184;2023-02-28T21:53:33;5.63;;;4.50;;
16015;SDS011;8112;53.592;10.184;2023-02-28T21:58:37;7.07;;;4.60;;
16015;SDS011;8112;53.592;10.184;2023-02-28T22:03:39;6.10;;;4.53;;
16015;SDS011;8112;53.592;10.184;2023-02-28T22:08:43;8.90;;;6.17;;
16015;SDS011;8112;53.592;10.184;2023-02-28T22:13:45;8.60;;;6.67;;
16015;SDS011;8112;53.592;10.184;2023-02-28T22:18:49;11.53;;;7.00;;
16015;SDS011;8112;53.592;10.184;2023-02-28T22:23:53;13.27;;;7.70;;
16015;SDS011;8112;53.592;10.184;2023-02-28T22:28:55;10.83;;;6.33;;
16015;SDS011;8112;53.592;10.184;2023-02-28T22:33:58;8.97;;;6.27;;
16015;SDS011;8112;53.592;10.184;2023-02-28T22:39:03;7.83;;;6.43;;
16015;SDS011;8112;53.592;10.184;2023-02-28T22:44:05;7.97;;;6.50;;
16015;SDS011;8112;53.592;10.184;2023-02-28T22:49:07;9.17;;;6.33;;
16015;SDS011;8112;53.592;10.184;2023-02-28T22:54:10;13.67;;;7.07;;
16015;SDS011;8112;53.592;10.184;2023-02-28T22:59:12;12.43;;;6.90;;
16015;SDS011;8112;53.592;10.184;2023-02-28T23:04:14;12.10;;;6.50;;
16015;SDS011;8112;53.592;10.184;2023-02-28T23:09:18;8.40;;;6.43;;
16015;SDS011;8112;53.592;10.184;2023-02-28T23:14:20;10.93;;;6.43;;
16015;SDS011;8112;53.592;10.184;2023-02-28T23:19:23;7.23;;;5.50;;
16015;SDS011;8112;53.592;10.184;2023-02-28T23:24:28;9.97;;;6.63;;
16015;SDS011;8112;53.592;10.184;2023-02-28T23:29:32;9.07;;;6.63;;
16015;SDS011;8112;53.592;10.184;2023-02-28T23:34:35;8.37;;;6.70;;
16015;SDS011;8112;53.592;10.184;2023-02-28T23:39:38;13.10;;;7.90;;
16015;SDS011;8112;53.592;10.184;2023-02-28T23:44:40;12.40;;;8.00;;
16015;SDS011;8112;53.592;10.184;2023-02-28T23:49:42;9.93;;;8.07;;
16015;SDS011;8112;53.592;10.184;2023-02-28T23:54:45;10.53;;;8.10;;
16015;SDS011;8112;53.592;10.184;2023-02-28T23:59:47;13.43;;;9.17;;
